createdAt,value
2022-10-19T00:01:36.863Z,16.83
2022-10-19T00:06:38.918Z,16.77
2022-10-19T00:11:43.010Z,16.67
2022-10-19T00:16:46.518Z,16.58
2022-10-19T00:21:48.596Z,16.49
2022-10-19T00:26:50.625Z,16.29
2022-10-19T00:31:53.045Z,16.08
2022-10-19T00:36:54.997Z,15.94
2022-10-19T00:41:56.989Z,15.93
2022-10-19T00:47:02.667Z,15.86
2022-10-19T00:52:10.750Z,15.83
2022-10-19T00:57:13.621Z,15.80
2022-10-19T01:02:15.672Z,15.73
2022-10-19T01:07:18.668Z,15.64
2022-10-19T01:12:23.615Z,15.65
2022-10-19T01:17:45.014Z,15.59
2022-10-19T01:23:05.134Z,15.54
2022-10-19T01:28:25.320Z,15.44
2022-10-19T01:33:36.082Z,15.40
2022-10-19T01:38:56.278Z,15.33
2022-10-19T01:44:04.253Z,15.31
2022-10-19T01:49:17.333Z,15.21
2022-10-19T01:54:22.223Z,15.08
2022-10-19T01:59:24.194Z,15.04
2022-10-19T02:04:26.635Z,15.01
2022-10-19T02:09:28.719Z,14.98
2022-10-19T02:14:41.837Z,14.94
2022-10-19T02:19:44.051Z,14.78
2022-10-19T02:24:46.049Z,14.60
2022-10-19T02:29:48.312Z,14.57
2022-10-19T02:34:50.400Z,14.61
2022-10-19T02:39:52.395Z,14.44
2022-10-19T02:44:59.150Z,14.44
2022-10-19T02:50:01.852Z,14.40
2022-10-19T02:55:04.643Z,14.30
2022-10-19T03:00:08.509Z,14.23
2022-10-19T03:05:10.497Z,14.27
2022-10-19T03:10:12.594Z,14.35
2022-10-19T03:15:19.063Z,14.41
2022-10-19T03:20:20.975Z,14.44
2022-10-19T03:25:22.861Z,14.47
2022-10-19T03:30:24.831Z,14.52
2022-10-19T03:35:26.759Z,14.54
2022-10-19T03:40:28.656Z,14.49
2022-10-19T03:45:30.638Z,14.46
2022-10-19T03:50:32.549Z,14.47
2022-10-19T03:55:34.422Z,14.46
2022-10-19T04:00:36.298Z,14.43
2022-10-19T04:05:38.182Z,14.37
2022-10-19T04:10:40.085Z,14.31
2022-10-19T04:15:42.001Z,14.18
2022-10-19T04:20:44.088Z,14.15
2022-10-19T04:25:45.981Z,14.09
2022-10-19T04:30:47.959Z,14.15
2022-10-19T04:35:49.879Z,14.06
2022-10-19T04:40:52.539Z,14.00
2022-10-19T04:45:54.423Z,13.92
2022-10-19T04:50:56.387Z,13.90
2022-10-19T04:55:58.807Z,13.90
2022-10-19T05:01:07.975Z,13.91
2022-10-19T05:06:11.155Z,13.84
2022-10-19T05:11:14.918Z,13.78
2022-10-19T05:16:19.810Z,13.64
2022-10-19T05:21:22.095Z,13.70
2022-10-19T05:26:26.808Z,13.50
2022-10-19T05:31:31.192Z,13.42
2022-10-19T05:36:39.646Z,13.27
2022-10-19T05:41:44.311Z,13.21
2022-10-19T05:46:46.884Z,13.18
2022-10-19T05:51:49.687Z,13.18
2022-10-19T05:56:51.677Z,13.17
2022-10-19T06:01:53.601Z,13.17
2022-10-19T06:06:55.772Z,13.20
2022-10-19T06:11:57.715Z,13.15
2022-10-19T06:16:59.617Z,13.24
2022-10-19T06:22:01.639Z,13.75
2022-10-19T06:27:03.658Z,13.89
2022-10-19T06:32:05.591Z,13.88
2022-10-19T06:37:08.356Z,13.84
2022-10-19T06:42:10.282Z,13.89
2022-10-19T06:47:12.314Z,13.96
2022-10-19T06:52:14.301Z,13.91
2022-10-19T06:57:16.224Z,13.82
2022-10-19T07:02:18.215Z,13.85
2022-10-19T07:07:20.137Z,13.87
2022-10-19T07:12:22.056Z,13.94
2022-10-19T07:17:23.965Z,13.96
2022-10-19T07:22:28.249Z,13.96
2022-10-19T07:27:34.021Z,13.94
2022-10-19T07:32:42.034Z,14.09
2022-10-19T07:37:47.893Z,14.11
2022-10-19T07:42:49.771Z,14.17
2022-10-19T07:47:51.657Z,14.26
2022-10-19T07:52:54.103Z,14.36
2022-10-19T07:57:55.932Z,14.45
2022-10-19T08:03:31.168Z,14.55
2022-10-19T08:08:19.630Z,14.54
2022-10-19T08:13:21.417Z,14.46
2022-10-19T08:18:23.725Z,14.38
2022-10-19T08:23:27.539Z,14.43
2022-10-19T08:28:29.451Z,14.46
2022-10-19T08:33:31.338Z,14.47
2022-10-19T08:38:35.891Z,14.51
2022-10-19T08:43:48.481Z,14.56
2022-10-19T08:48:50.514Z,14.54
2022-10-19T08:54:00.575Z,14.00
2022-10-19T08:59:21.110Z,14.25
2022-10-19T09:04:30.095Z,14.36
2022-10-19T09:09:33.721Z,14.43
2022-10-19T09:14:53.779Z,14.26
2022-10-19T09:19:56.794Z,14.20
2022-10-19T09:25:13.127Z,14.78
2022-10-19T09:30:23.466Z,15.00
2022-10-19T09:35:30.439Z,15.10
2022-10-19T09:40:32.324Z,15.21
2022-10-19T09:45:52.204Z,15.31
2022-10-19T09:51:00.247Z,15.42
2022-10-19T09:56:08.000Z,15.39
2022-10-19T10:01:43.257Z,15.34
2022-10-19T10:06:48.403Z,15.20
2022-10-19T10:11:51.392Z,15.21
2022-10-19T10:17:18.982Z,15.30
2022-10-19T10:22:29.863Z,15.36
2022-10-19T10:27:35.209Z,15.48
2022-10-19T10:32:48.258Z,15.56
2022-10-19T10:37:50.379Z,15.58
2022-10-19T10:42:55.062Z,15.58
2022-10-19T10:47:58.164Z,15.47
2022-10-19T10:53:06.159Z,15.48
2022-10-19T10:58:18.630Z,15.16
2022-10-19T11:03:26.091Z,15.00
2022-10-19T11:08:34.226Z,14.99
2022-10-19T11:13:47.741Z,15.02
2022-10-19T11:18:58.677Z,14.88
2022-10-19T11:24:09.738Z,14.83
2022-10-19T11:29:55.691Z,14.88
2022-10-19T11:35:06.685Z,14.89
2022-10-19T11:40:29.511Z,14.95
2022-10-19T11:45:46.316Z,14.91
2022-10-19T11:51:17.383Z,14.86
2022-10-19T11:56:44.856Z,14.89
2022-10-19T12:01:56.396Z,14.89
2022-10-19T12:07:16.429Z,14.92
2022-10-19T12:12:31.030Z,14.97
2022-10-19T12:17:37.831Z,15.05
2022-10-19T12:22:40.320Z,15.12
2022-10-19T12:27:42.923Z,15.12
2022-10-19T12:33:04.977Z,15.20
2022-10-19T12:38:10.894Z,15.26
2022-10-19T12:43:38.551Z,15.23
2022-10-19T12:48:40.370Z,15.11
2022-10-19T12:53:47.815Z,15.10
2022-10-19T12:59:01.663Z,15.18
2022-10-19T13:04:17.701Z,15.23
2022-10-19T13:09:32.642Z,15.22
2022-10-19T13:14:56.278Z,15.30
2022-10-19T13:20:13.226Z,15.36
2022-10-19T13:25:28.347Z,15.32
2022-10-19T13:30:38.818Z,15.28
2022-10-19T13:35:40.988Z,15.28
2022-10-19T13:40:48.818Z,15.21
2022-10-19T13:46:04.152Z,15.19
2022-10-19T13:51:17.433Z,15.25
2022-10-19T13:56:43.615Z,15.24
2022-10-19T14:02:23.832Z,15.23
2022-10-19T14:07:43.981Z,15.20
2022-10-19T14:12:47.000Z,15.11
2022-10-19T14:17:49.102Z,15.16
2022-10-19T14:22:50.892Z,15.14
2022-10-19T14:28:01.804Z,15.19
2022-10-19T14:33:09.929Z,15.14
2022-10-19T14:38:21.159Z,15.05
2022-10-19T14:43:22.976Z,15.04
2022-10-19T14:48:24.806Z,15.03
2022-10-19T14:53:48.679Z,14.95
2022-10-19T14:59:19.415Z,14.92
2022-10-19T15:04:24.912Z,14.96
2022-10-19T15:09:43.789Z,14.96
2022-10-19T15:14:49.839Z,14.92
2022-10-19T15:19:52.190Z,14.67
2022-10-19T15:24:58.901Z,14.58
2022-10-19T15:30:17.899Z,14.43
2022-10-19T15:35:29.668Z,14.27
2022-10-19T15:40:49.775Z,14.18
2022-10-19T15:46:13.449Z,14.00
2022-10-19T15:51:27.372Z,13.85
2022-10-19T15:56:32.059Z,13.77
2022-10-19T16:01:34.407Z,13.73
2022-10-19T16:06:39.912Z,13.81
2022-10-19T16:11:41.754Z,13.72
2022-10-19T16:16:43.642Z,13.73
2022-10-19T16:21:50.024Z,13.78
2022-10-19T16:26:52.155Z,13.87
2022-10-19T16:31:53.990Z,13.99
2022-10-19T16:36:55.814Z,14.00
2022-10-19T16:41:57.661Z,13.68
2022-10-19T16:46:59.990Z,13.47
2022-10-19T16:52:01.901Z,13.46
2022-10-19T16:57:08.654Z,13.47
2022-10-19T17:02:11.852Z,13.40
2022-10-19T17:07:14.483Z,13.35
2022-10-19T17:12:16.741Z,13.43
2022-10-19T17:17:18.547Z,13.44
2022-10-19T17:22:20.331Z,13.29
2022-10-19T17:27:22.256Z,12.99
2022-10-19T17:32:24.106Z,12.79
2022-10-19T17:37:25.955Z,12.77
2022-10-19T17:42:27.771Z,12.78
2022-10-19T17:47:30.590Z,12.65
2022-10-19T17:52:32.406Z,12.43
2022-10-19T17:57:36.009Z,12.33
2022-10-19T18:02:38.103Z,12.22
2022-10-19T18:07:40.205Z,12.11
2022-10-19T18:12:42.009Z,11.97
2022-10-19T18:17:43.933Z,11.81
2022-10-19T18:22:45.742Z,11.77
2022-10-19T18:27:47.544Z,11.72
2022-10-19T18:32:49.882Z,11.66
2022-10-19T18:37:51.657Z,11.60
2022-10-19T18:42:53.603Z,11.61
2022-10-19T18:47:55.418Z,11.68
2022-10-19T18:52:57.246Z,11.76
2022-10-19T18:57:59.046Z,11.81
2022-10-19T19:03:00.883Z,11.77
2022-10-19T19:08:02.788Z,11.72
2022-10-19T19:13:04.565Z,11.65
2022-10-19T19:18:06.491Z,11.57
2022-10-19T19:23:08.370Z,11.57
2022-10-19T19:28:10.355Z,11.46
2022-10-19T19:33:13.897Z,11.35
2022-10-19T19:38:16.593Z,11.30
2022-10-19T19:43:20.149Z,11.27
2022-10-19T19:48:21.952Z,11.20
2022-10-19T19:53:23.768Z,11.14
2022-10-19T19:58:26.271Z,11.09
2022-10-19T20:03:28.119Z,11.01
2022-10-19T20:08:30.278Z,10.82
2022-10-19T20:13:32.825Z,10.58
2022-10-19T20:18:34.964Z,10.53
2022-10-19T20:23:36.937Z,10.55
2022-10-19T20:28:38.681Z,10.54
2022-10-19T20:33:42.411Z,10.52
2022-10-19T20:38:55.958Z,10.31
2022-10-19T20:43:57.929Z,10.09
2022-10-19T20:49:01.890Z,10.21
2022-10-19T20:54:06.481Z,10.24
2022-10-19T20:59:14.050Z,10.20
2022-10-19T21:04:16.705Z,10.15
2022-10-19T21:09:21.739Z,10.11
2022-10-19T21:14:28.319Z,9.95
2022-10-19T21:19:31.255Z,9.78
2022-10-19T21:24:35.213Z,9.80
2022-10-19T21:29:37.231Z,9.78
2022-10-19T21:34:39.188Z,9.55
2022-10-19T21:39:41.061Z,9.48
2022-10-19T21:44:42.869Z,9.60
2022-10-19T21:49:44.696Z,9.65
2022-10-19T21:54:46.548Z,9.54
2022-10-19T21:59:48.364Z,9.59
2022-10-19T22:04:50.185Z,9.63
2022-10-19T22:09:52.830Z,9.65
2022-10-19T22:14:54.851Z,9.72
2022-10-19T22:19:56.688Z,9.80
2022-10-19T22:24:58.496Z,9.70
2022-10-19T22:30:00.316Z,9.69
2022-10-19T22:35:02.165Z,9.70
2022-10-19T22:40:04.541Z,9.57
2022-10-19T22:45:06.850Z,9.50
2022-10-19T22:50:11.863Z,9.51
2022-10-19T22:55:13.857Z,9.51
2022-10-19T23:00:15.840Z,9.48
2022-10-19T23:05:17.874Z,9.47
2022-10-19T23:10:19.977Z,9.43
2022-10-19T23:15:21.995Z,9.47
2022-10-19T23:20:23.784Z,9.49
2022-10-19T23:25:25.614Z,9.50
2022-10-19T23:30:27.509Z,9.45
2022-10-19T23:35:29.286Z,9.43
2022-10-19T23:40:31.113Z,9.41
2022-10-19T23:45:32.893Z,9.40
2022-10-19T23:50:34.966Z,9.42
2022-10-19T23:55:36.985Z,9.47
